sensor_id;sensor_type;location;lat;lon;timestamp;pressure;altitude;pressure_sealevel;temperature;humidity
41254;BME280;26987;59.928;30.306;2023-05-25T00:02:03;101365.31;;;14.04;79.35
41254;BME280;26987;59.928;30.306;2023-05-25T00:04:31;101353.75;;;13.96;80.41
41254;BME280;26987;59.928;30.306;2023-05-25T00:07:00;101347.97;;;13.93;80.98
41254;BME280;26987;59.928;30.306;2023-05-25T00:09:28;101362.69;;;13.90;81.59
41254;BME280;26987;59.928;30.306;2023-05-25T00:11:57;101345.56;;;13.78;81.99
41254;BME280;26987;59.928;30.306;2023-05-25T00:14:26;101351.56;;;13.73;82.91
41254;BME280;26987;59.928;30.306;2023-05-25T00:16:54;101360.50;;;13.73;83.96
41254;BME280;26987;59.928;30.306;2023-05-25T00:19:21;101351.59;;;13.66;84.21
41254;BME280;26987;59.928;30.306;2023-05-25T00:21:51;101355.97;;;13.60;85.07
41254;BME280;26987;59.928;30.306;2023-05-25T00:24:19;101348.34;;;13.51;85.74
41254;BME280;26987;59.928;30.306;2023-05-25T00:26:47;101345.41;;;13.45;86.57
41254;BME280;26987;59.928;30.306;2023-05-25T00:29:17;101332.97;;;13.37;86.36
41254;BME280;26987;59.928;30.306;2023-05-25T00:31:44;101359.28;;;13.49;86.60
41254;BME280;26987;59.928;30.306;2023-05-25T00:34:12;101353.47;;;13.45;86.91
41254;BME280;26987;59.928;30.306;2023-05-25T00:36:41;101342.13;;;13.36;86.59
41254;BME280;26987;59.928;30.306;2023-05-25T00:39:09;101354.13;;;13.34;86.78
41254;BME280;26987;59.928;30.306;2023-05-25T00:41:39;101351.03;;;13.37;86.31
41254;BME280;26987;59.928;30.306;2023-05-25T00:44:07;101342.94;;;13.37;86.54
41254;BME280;26987;59.928;30.306;2023-05-25T00:46:37;101340.47;;;13.29;85.81
41254;BME280;26987;59.928;30.306;2023-05-25T00:49:05;101342.94;;;13.37;85.84
41254;BME280;26987;59.928;30.306;2023-05-25T00:51:33;101348.13;;;13.32;85.19
41254;BME280;26987;59.928;30.306;2023-05-25T00:54:02;101340.47;;;13.29;85.15
41254;BME280;26987;59.928;30.306;2023-05-25T00:56:32;101336.53;;;13.24;84.64
41254;BME280;26987;59.928;30.306;2023-05-25T00:59:03;101329.09;;;13.20;84.78
41254;BME280;26987;59.928;30.306;2023-05-25T01:01:39;101330.31;;;13.31;84.53
41254;BME280;26987;59.928;30.306;2023-05-25T01:04:08;101332.19;;;13.30;84.07
41254;BME280;26987;59.928;30.306;2023-05-25T01:06:38;101342.56;;;13.27;84.10
41254;BME280;26987;59.928;30.306;2023-05-25T01:09:10;101322.69;;;13.14;83.83
41254;BME280;26987;59.928;30.306;2023-05-25T01:11:43;101326.41;;;13.27;83.80
41254;BME280;26987;59.928;30.306;2023-05-25T01:14:12;101331.56;;;13.35;83.59
41254;BME280;26987;59.928;30.306;2023-05-25T01:16:42;101325.56;;;13.33;83.13
41254;BME280;26987;59.928;30.306;2023-05-25T01:19:10;101319.72;;;13.36;83.10
41254;BME280;26987;59.928;30.306;2023-05-25T01:21:43;101328.84;;;13.42;83.15
41254;BME280;26987;59.928;30.306;2023-05-25T01:24:20;101329.25;;;13.45;83.04
41254;BME280;26987;59.928;30.306;2023-05-25T01:26:54;101297.38;;;13.35;83.08
41254;BME280;26987;59.928;30.306;2023-05-25T01:29:25;101328.44;;;13.52;82.81
41254;BME280;26987;59.928;30.306;2023-05-25T01:31:55;101293.22;;;13.40;82.42
41254;BME280;26987;59.928;30.306;2023-05-25T01:34:25;101324.47;;;13.61;82.38
41254;BME280;26987;59.928;30.306;2023-05-25T01:36:54;101320.09;;;13.67;82.09
41254;BME280;26987;59.928;30.306;2023-05-25T01:39:22;101317.19;;;13.68;82.04
41254;BME280;26987;59.928;30.306;2023-05-25T01:41:50;101316.34;;;13.74;81.71
41254;BME280;26987;59.928;30.306;2023-05-25T01:44:19;101312.34;;;13.84;81.49
41254;BME280;26987;59.928;30.306;2023-05-25T01:46:50;101313.16;;;13.91;81.00
41254;BME280;26987;59.928;30.306;2023-05-25T01:49:25;101314.09;;;14.04;80.76
41254;BME280;26987;59.928;30.306;2023-05-25T01:52:03;101312.81;;;14.13;80.29
41254;BME280;26987;59.928;30.306;2023-05-25T01:54:36;101319.50;;;14.36;79.44
41254;BME280;26987;59.928;30.306;2023-05-25T01:57:09;101314.53;;;14.65;77.81
41254;BME280;26987;59.928;30.306;2023-05-25T01:59:41;101315.00;;;14.87;76.83
41254;BME280;26987;59.928;30.306;2023-05-25T02:02:11;101310.31;;;15.20;74.86
41254;BME280;26987;59.928;30.306;2023-05-25T02:04:41;101315.13;;;15.56;72.80
41254;BME280;26987;59.928;30.306;2023-05-25T02:07:10;101315.19;;;16.17;69.33
41254;BME280;26987;59.928;30.306;2023-05-25T02:09:38;101309.84;;;16.53;67.11
41254;BME280;26987;59.928;30.306;2023-05-25T02:12:06;101315.16;;;16.84;65.56
41254;BME280;26987;59.928;30.306;2023-05-25T02:14:34;101314.38;;;17.07;64.57
41254;BME280;26987;59.928;30.306;2023-05-25T02:17:02;101314.59;;;17.18;63.86
41254;BME280;26987;59.928;30.306;2023-05-25T02:19:30;101315.91;;;17.15;63.23
41254;BME280;26987;59.928;30.306;2023-05-25T02:21:58;101319.78;;;17.19;62.27
41254;BME280;26987;59.928;30.306;2023-05-25T02:24:28;101317.16;;;17.48;61.24
41254;BME280;26987;59.928;30.306;2023-05-25T02:26:56;101306.44;;;18.12;58.69
41254;BME280;26987;59.928;30.306;2023-05-25T02:29:24;101317.31;;;18.81;56.41
41254;BME280;26987;59.928;30.306;2023-05-25T02:31:51;101318.00;;;19.50;53.59
41254;BME280;26987;59.928;30.306;2023-05-25T02:34:19;101307.72;;;20.02;51.58
41254;BME280;26987;59.928;30.306;2023-05-25T02:36:47;101306.19;;;20.44;49.10
41254;BME280;26987;59.928;30.306;2023-05-25T02:39:15;101316.25;;;20.82;47.64
41254;BME280;26987;59.928;30.306;2023-05-25T02:41:44;101311.66;;;21.36;45.86
41254;BME280;26987;59.928;30.306;2023-05-25T02:44:12;101317.75;;;21.53;44.90
41254;BME280;26987;59.928;30.306;2023-05-25T02:46:41;101325.78;;;21.91;43.36
41254;BME280;26987;59.928;30.306;2023-05-25T02:49:09;101311.91;;;22.40;41.91
41254;BME280;26987;59.928;30.306;2023-05-25T02:51:37;101305.38;;;22.67;41.46
41254;BME280;26987;59.928;30.306;2023-05-25T02:54:05;101320.50;;;23.30;39.38
41254;BME280;26987;59.928;30.306;2023-05-25T02:56:33;101297.72;;;23.56;38.73
41254;BME280;26987;59.928;30.306;2023-05-25T02:59:04;101315.97;;;24.16;38.38
41254;BME280;26987;59.928;30.306;2023-05-25T03:01:34;101304.34;;;24.35;37.35
41254;BME280;26987;59.928;30.306;2023-05-25T03:04:08;101313.91;;;24.97;36.83
41254;BME280;26987;59.928;30.306;2023-05-25T03:06:37;101303.25;;;24.96;35.78
41254;BME280;26987;59.928;30.306;2023-05-25T03:09:12;101296.03;;;25.24;34.72
41254;BME280;26987;59.928;30.306;2023-05-25T03:11:40;101302.88;;;25.71;34.35
41254;BME280;26987;59.928;30.306;2023-05-25T03:14:13;101306.75;;;26.03;34.03
41254;BME280;26987;59.928;30.306;2023-05-25T03:16:45;101299.22;;;26.47;33.02
41254;BME280;26987;59.928;30.306;2023-05-25T03:19:13;101304.13;;;26.78;32.28
41254;BME280;26987;59.928;30.306;2023-05-25T03:21:41;101293.06;;;27.26;31.42
41254;BME280;26987;59.928;30.306;2023-05-25T03:24:09;101295.28;;;27.38;31.51
41254;BME280;26987;59.928;30.306;2023-05-25T03:26:37;101298.00;;;27.66;30.75
41254;BME280;26987;59.928;30.306;2023-05-25T03:29:05;101295.75;;;27.68;30.80
41254;BME280;26987;59.928;30.306;2023-05-25T03:31:35;101300.91;;;28.06;30.04
41254;BME280;26987;59.928;30.306;2023-05-25T03:34:04;101293.38;;;28.44;29.52
41254;BME280;26987;59.928;30.306;2023-05-25T03:36:34;101297.94;;;28.49;29.79
41254;BME280;26987;59.928;30.306;2023-05-25T03:39:02;101293.50;;;28.70;28.70
41254;BME280;26987;59.928;30.306;2023-05-25T03:41:30;101287.41;;;28.82;28.96
41254;BME280;26987;59.928;30.306;2023-05-25T03:43:58;101283.59;;;29.10;28.13
41254;BME280;26987;59.928;30.306;2023-05-25T03:46:26;101283.38;;;29.56;27.64
41254;BME280;26987;59.928;30.306;2023-05-25T03:48:58;101292.09;;;30.02;27.04
41254;BME280;26987;59.928;30.306;2023-05-25T03:51:26;101283.34;;;30.18;27.21
41254;BME280;26987;59.928;30.306;2023-05-25T03:53:54;101284.78;;;30.24;27.04
41254;BME280;26987;59.928;30.306;2023-05-25T03:56:23;101277.03;;;30.56;26.22
41254;BME280;26987;59.928;30.306;2023-05-25T03:58:51;101269.66;;;30.78;26.14
41254;BME280;26987;59.928;30.306;2023-05-25T04:01:19;101271.13;;;30.67;26.02
41254;BME280;26987;59.928;30.306;2023-05-25T04:03:47;101265.41;;;31.32;25.08
41254;BME280;26987;59.928;30.306;2023-05-25T04:06:16;101267.22;;;31.71;24.61
41254;BME280;26987;59.928;30.306;2023-05-25T04:08:45;101262.03;;;31.48;24.48
41254;BME280;26987;59.928;30.306;2023-05-25T04:11:13;101249.66;;;31.67;23.55
41254;BME280;26987;59.928;30.306;2023-05-25T04:13:41;101261.81;;;31.32;24.28
41254;BME280;26987;59.928;30.306;2023-05-25T04:16:09;101255.63;;;31.56;24.07
41254;BME280;26987;59.928;30.306;2023-05-25T04:18:37;101254.97;;;31.59;23.86
41254;BME280;26987;59.928;30.306;2023-05-25T04:21:05;101253.59;;;31.66;23.61
41254;BME280;26987;59.928;30.306;2023-05-25T04:23:35;101254.63;;;31.40;23.75
41254;BME280;26987;59.928;30.306;2023-05-25T04:26:05;101258.97;;;31.83;22.99
41254;BME280;26987;59.928;30.306;2023-05-25T04:28:35;101247.88;;;31.83;23.09
41254;BME280;26987;59.928;30.306;2023-05-25T04:31:13;101249.69;;;32.84;22.13
41254;BME280;26987;59.928;30.306;2023-05-25T04:34:01;101244.09;;;33.09;22.23
41254;BME280;26987;59.928;30.306;2023-05-25T04:36:31;101247.13;;;33.45;22.00
41254;BME280;26987;59.928;30.306;2023-05-25T04:39:03;101249.88;;;33.17;22.36
41254;BME280;26987;59.928;30.306;2023-05-25T04:41:34;101243.34;;;33.38;22.27
41254;BME280;26987;59.928;30.306;2023-05-25T04:44:06;101249.91;;;33.74;21.99
41254;BME280;26987;59.928;30.306;2023-05-25T04:46:37;101222.22;;;33.20;22.01
41254;BME280;26987;59.928;30.306;2023-05-25T04:49:09;101252.78;;;33.62;21.55
41254;BME280;26987;59.928;30.306;2023-05-25T04:51:38;101250.81;;;34.07;21.04
41254;BME280;26987;59.928;30.306;2023-05-25T04:54:08;101249.63;;;33.92;21.56
41254;BME280;26987;59.928;30.306;2023-05-25T04:56:36;101241.84;;;34.30;21.02
41254;BME280;26987;59.928;30.306;2023-05-25T04:59:04;101236.28;;;34.46;21.06
41254;BME280;26987;59.928;30.306;2023-05-25T05:01:32;101237.28;;;34.38;21.04
41254;BME280;26987;59.928;30.306;2023-05-25T05:04:06;101239.19;;;34.17;21.41
41254;BME280;26987;59.928;30.306;2023-05-25T05:06:35;101223.34;;;34.70;20.65
41254;BME280;26987;59.928;30.306;2023-05-25T05:09:03;101229.34;;;34.88;20.47
41254;BME280;26987;59.928;30.306;2023-05-25T05:11:33;101217.50;;;34.75;20.68
41254;BME280;26987;59.928;30.306;2023-05-25T05:14:02;101234.00;;;34.84;20.98
41254;BME280;26987;59.928;30.306;2023-05-25T05:16:30;101220.47;;;35.02;20.07
41254;BME280;26987;59.928;30.306;2023-05-25T05:19:00;101214.13;;;35.02;20.11
41254;BME280;26987;59.928;30.306;2023-05-25T05:21:29;101200.38;;;35.29;19.95
41254;BME280;26987;59.928;30.306;2023-05-25T05:23:58;101205.13;;;35.28;19.87
41254;BME280;26987;59.928;30.306;2023-05-25T05:26:25;101195.16;;;35.47;19.81
41254;BME280;26987;59.928;30.306;2023-05-25T05:28:55;101208.75;;;35.52;19.09
41254;BME280;26987;59.928;30.306;2023-05-25T05:31:24;101203.19;;;35.72;19.29
41254;BME280;26987;59.928;30.306;2023-05-25T05:33:53;101192.22;;;36.06;18.90
41254;BME280;26987;59.928;30.306;2023-05-25T05:36:20;101182.84;;;35.71;19.43
41254;BME280;26987;59.928;30.306;2023-05-25T05:38:49;101176.22;;;35.37;19.42
41254;BME280;26987;59.928;30.306;2023-05-25T05:41:17;101178.97;;;35.76;19.29
41254;BME280;26987;59.928;30.306;2023-05-25T05:43:48;101193.59;;;35.93;18.71
41254;BME280;26987;59.928;30.306;2023-05-25T05:46:18;101174.72;;;35.19;19.56
41254;BME280;26987;59.928;30.306;2023-05-25T05:48:46;101184.03;;;33.75;21.19
41254;BME280;26987;59.928;30.306;2023-05-25T05:51:14;101179.00;;;31.94;23.14
41254;BME280;26987;59.928;30.306;2023-05-25T05:53:43;101180.31;;;32.34;23.06
41254;BME280;26987;59.928;30.306;2023-05-25T05:56:16;101183.94;;;33.71;21.80
41254;BME280;26987;59.928;30.306;2023-05-25T05:58:45;101182.34;;;34.34;21.09
41254;BME280;26987;59.928;30.306;2023-05-25T06:01:15;101173.28;;;34.90;20.47
41254;BME280;26987;59.928;30.306;2023-05-25T06:03:44;101187.84;;;34.31;21.29
41254;BME280;26987;59.928;30.306;2023-05-25T06:06:13;101176.94;;;32.41;22.98
41254;BME280;26987;59.928;30.306;2023-05-25T06:08:41;101178.94;;;31.48;23.82
41254;BME280;26987;59.928;30.306;2023-05-25T06:11:10;101172.94;;;30.82;24.32
41254;BME280;26987;59.928;30.306;2023-05-25T06:13:39;101177.09;;;31.86;24.26
41254;BME280;26987;59.928;30.306;2023-05-25T06:16:07;101180.41;;;33.29;22.66
41254;BME280;26987;59.928;30.306;2023-05-25T06:18:35;101172.88;;;32.89;22.81
41254;BME280;26987;59.928;30.306;2023-05-25T06:21:05;101186.78;;;33.30;23.01
41254;BME280;26987;59.928;30.306;2023-05-25T06:23:33;101172.41;;;33.28;22.43
41254;BME280;26987;59.928;30.306;2023-05-25T06:26:03;101177.88;;;33.81;22.37
41254;BME280;26987;59.928;30.306;2023-05-25T06:28:32;101163.22;;;33.84;21.69
41254;BME280;26987;59.928;30.306;2023-05-25T06:30:59;101176.41;;;33.88;21.69
41254;BME280;26987;59.928;30.306;2023-05-25T06:33:27;101171.06;;;34.27;21.34
41254;BME280;26987;59.928;30.306;2023-05-25T06:35:56;101172.97;;;33.33;22.36
41254;BME280;26987;59.928;30.306;2023-05-25T06:38:27;101177.53;;;32.47;22.68
41254;BME280;26987;59.928;30.306;2023-05-25T06:40:55;101167.13;;;32.56;22.63
41254;BME280;26987;59.928;30.306;2023-05-25T06:43:28;101139.94;;;32.75;22.40
41254;BME280;26987;59.928;30.306;2023-05-25T06:46:20;101164.50;;;33.01;22.17
41254;BME280;26987;59.928;30.306;2023-05-25T06:48:47;101167.06;;;33.06;22.27
41254;BME280;26987;59.928;30.306;2023-05-25T06:51:15;101149.22;;;32.66;22.50
41254;BME280;26987;59.928;30.306;2023-05-25T06:53:45;101165.16;;;32.19;23.56
41254;BME280;26987;59.928;30.306;2023-05-25T06:56:13;101161.00;;;31.67;23.79
41254;BME280;26987;59.928;30.306;2023-05-25T06:58:41;101162.25;;;31.57;23.81
41254;BME280;26987;59.928;30.306;2023-05-25T07:01:09;101160.78;;;30.95;24.42
41254;BME280;26987;59.928;30.306;2023-05-25T07:03:37;101140.56;;;30.22;24.78
41254;BME280;26987;59.928;30.306;2023-05-25T07:06:05;101158.66;;;30.02;25.63
41254;BME280;26987;59.928;30.306;2023-05-25T07:08:33;101164.38;;;29.88;26.10
41254;BME280;26987;59.928;30.306;2023-05-25T07:11:03;101135.69;;;29.53;26.16
41254;BME280;26987;59.928;30.306;2023-05-25T07:13:31;101161.50;;;29.22;26.66
41254;BME280;26987;59.928;30.306;2023-05-25T07:15:58;101167.34;;;28.94;27.21
41254;BME280;26987;59.928;30.306;2023-05-25T07:18:26;101153.50;;;28.67;27.60
41254;BME280;26987;59.928;30.306;2023-05-25T07:20:54;101158.88;;;28.32;27.69
41254;BME280;26987;59.928;30.306;2023-05-25T07:23:22;101154.38;;;27.73;28.75
41254;BME280;26987;59.928;30.306;2023-05-25T07:25:50;101147.59;;;27.33;28.74
41254;BME280;26987;59.928;30.306;2023-05-25T07:28:19;101155.22;;;27.36;29.73
41254;BME280;26987;59.928;30.306;2023-05-25T07:30:47;101144.56;;;27.20;29.70
41254;BME280;26987;59.928;30.306;2023-05-25T07:33:15;101135.22;;;27.22;29.42
41254;BME280;26987;59.928;30.306;2023-05-25T07:35:42;101140.75;;;27.07;30.13
41254;BME280;26987;59.928;30.306;2023-05-25T07:38:10;101130.75;;;26.98;30.00
41254;BME280;26987;59.928;30.306;2023-05-25T07:40:38;101131.13;;;26.68;30.90
41254;BME280;26987;59.928;30.306;2023-05-25T07:43:06;101132.47;;;26.56;30.80
41254;BME280;26987;59.928;30.306;2023-05-25T07:45:35;101133.06;;;26.53;31.28
41254;BME280;26987;59.928;30.306;2023-05-25T07:48:03;101138.47;;;26.44;31.53
41254;BME280;26987;59.928;30.306;2023-05-25T07:50:32;101128.31;;;26.31;31.23
41254;BME280;26987;59.928;30.306;2023-05-25T07:53:00;101130.22;;;26.30;31.60
41254;BME280;26987;59.928;30.306;2023-05-25T07:55:28;101133.66;;;26.22;31.88
41254;BME280;26987;59.928;30.306;2023-05-25T07:57:56;101123.28;;;26.33;32.09
41254;BME280;26987;59.928;30.306;2023-05-25T08:00:24;101122.56;;;26.27;31.64
41254;BME280;26987;59.928;30.306;2023-05-25T08:02:54;101124.06;;;26.19;32.40
41254;BME280;26987;59.928;30.306;2023-05-25T08:05:21;101125.19;;;26.04;31.88
41254;BME280;26987;59.928;30.306;2023-05-25T08:07:49;101117.13;;;25.94;32.03
41254;BME280;26987;59.928;30.306;2023-05-25T08:10:17;101117.22;;;25.55;32.89
41254;BME280;26987;59.928;30.306;2023-05-25T08:12:45;101126.28;;;25.37;32.69
41254;BME280;26987;59.928;30.306;2023-05-25T08:15:13;101131.59;;;25.33;33.57
41254;BME280;26987;59.928;30.306;2023-05-25T08:17:41;101121.28;;;25.25;33.64
41254;BME280;26987;59.928;30.306;2023-05-25T08:20:11;101129.88;;;25.37;33.91
41254;BME280;26987;59.928;30.306;2023-05-25T08:22:39;101120.97;;;25.26;33.81
41254;BME280;26987;59.928;30.306;2023-05-25T08:25:07;101129.00;;;25.23;33.78
41254;BME280;26987;59.928;30.306;2023-05-25T08:27:35;101129.34;;;25.16;33.75
41254;BME280;26987;59.928;30.306;2023-05-25T08:30:04;101134.25;;;25.00;34.06
41254;BME280;26987;59.928;30.306;2023-05-25T08:32:32;101127.16;;;24.74;34.90
41254;BME280;26987;59.928;30.306;2023-05-25T08:35:00;101120.84;;;24.74;34.97
41254;BME280;26987;59.928;30.306;2023-05-25T08:37:30;101082.75;;;24.53;35.20
41254;BME280;26987;59.928;30.306;2023-05-25T08:39:58;101122.47;;;24.75;34.90
41254;BME280;26987;59.928;30.306;2023-05-25T08:42:28;101123.31;;;24.75;34.68
41254;BME280;26987;59.928;30.306;2023-05-25T08:44:56;101116.34;;;24.83;34.97
41254;BME280;26987;59.928;30.306;2023-05-25T08:47:27;101123.06;;;24.96;34.56
41254;BME280;26987;59.928;30.306;2023-05-25T08:49:59;101122.84;;;24.92;34.46
41254;BME280;26987;59.928;30.306;2023-05-25T08:52:31;101121.53;;;24.85;34.89
41254;BME280;26987;59.928;30.306;2023-05-25T08:55:03;101122.28;;;24.71;35.51
41254;BME280;26987;59.928;30.306;2023-05-25T08:57:36;101125.06;;;24.66;35.47
41254;BME280;26987;59.928;30.306;2023-05-25T09:00:08;101123.69;;;24.68;35.28
41254;BME280;26987;59.928;30.306;2023-05-25T09:02:41;101119.97;;;24.78;35.23
41254;BME280;26987;59.928;30.306;2023-05-25T09:05:10;101116.13;;;24.79;35.22
41254;BME280;26987;59.928;30.306;2023-05-25T09:07:42;101123.66;;;24.93;34.55
41254;BME280;26987;59.928;30.306;2023-05-25T09:10:10;101110.03;;;24.88;34.50
41254;BME280;26987;59.928;30.306;2023-05-25T09:12:39;101112.03;;;25.01;34.33
41254;BME280;26987;59.928;30.306;2023-05-25T09:15:09;101094.69;;;25.06;34.71
41254;BME280;26987;59.928;30.306;2023-05-25T09:17:38;101105.69;;;25.20;34.35
41254;BME280;26987;59.928;30.306;2023-05-25T09:20:07;101115.22;;;25.09;34.10
41254;BME280;26987;59.928;30.306;2023-05-25T09:22:37;101108.84;;;24.94;34.23
41254;BME280;26987;59.928;30.306;2023-05-25T09:25:09;101107.72;;;25.14;33.94
41254;BME280;26987;59.928;30.306;2023-05-25T09:27:38;101112.31;;;25.19;34.51
41254;BME280;26987;59.928;30.306;2023-05-25T09:30:06;101119.34;;;25.25;34.11
41254;BME280;26987;59.928;30.306;2023-05-25T09:32:34;101099.03;;;25.07;33.86
41254;BME280;26987;59.928;30.306;2023-05-25T09:35:06;101117.06;;;25.13;34.04
41254;BME280;26987;59.928;30.306;2023-05-25T09:37:34;101117.56;;;25.15;33.65
41254;BME280;26987;59.928;30.306;2023-05-25T09:40:03;101112.09;;;24.96;33.24
41254;BME280;26987;59.928;30.306;2023-05-25T09:42:33;101115.34;;;24.98;32.77
41254;BME280;26987;59.928;30.306;2023-05-25T09:45:01;101111.88;;;24.92;32.42
41254;BME280;26987;59.928;30.306;2023-05-25T09:47:29;101104.75;;;24.91;32.40
41254;BME280;26987;59.928;30.306;2023-05-25T09:49:57;101107.19;;;24.93;32.10
41254;BME280;26987;59.928;30.306;2023-05-25T09:52:26;101107.50;;;25.11;31.22
41254;BME280;26987;59.928;30.306;2023-05-25T09:54:56;101100.66;;;25.27;30.49
41254;BME280;26987;59.928;30.306;2023-05-25T09:57:26;101101.09;;;25.15;30.35
41254;BME280;26987;59.928;30.306;2023-05-25T09:59:56;101110.38;;;25.00;30.31
41254;BME280;26987;59.928;30.306;2023-05-25T10:02:23;101104.41;;;24.74;30.37
41254;BME280;26987;59.928;30.306;2023-05-25T10:04:51;101088.44;;;24.56;30.64
41254;BME280;26987;59.928;30.306;2023-05-25T10:07:19;101101.56;;;24.60;30.35
41254;BME280;26987;59.928;30.306;2023-05-25T10:09:49;101095.16;;;24.69;30.48
41254;BME280;26987;59.928;30.306;2023-05-25T10:12:18;101092.63;;;24.73;30.81
41254;BME280;26987;59.928;30.306;2023-05-25T10:14:49;101072.78;;;24.62;30.01
41254;BME280;26987;59.928;30.306;2023-05-25T10:17:22;101092.28;;;24.80;29.99
41254;BME280;26987;59.928;30.306;2023-05-25T10:19:53;101088.69;;;24.79;30.33
41254;BME280;26987;59.928;30.306;2023-05-25T10:22:26;101073.00;;;24.85;29.32
41254;BME280;26987;59.928;30.306;2023-05-25T10:25:01;101082.59;;;24.88;29.74
41254;BME280;26987;59.928;30.306;2023-05-25T10:27:35;101090.81;;;25.07;29.24
41254;BME280;26987;59.928;30.306;2023-05-25T10:30:05;101095.47;;;25.59;29.17
41254;BME280;26987;59.928;30.306;2023-05-25T10:32:35;101088.47;;;25.34;28.85
41254;BME280;26987;59.928;30.306;2023-05-25T10:35:05;101089.59;;;25.32;28.70
41254;BME280;26987;59.928;30.306;2023-05-25T10:37:33;101083.28;;;25.32;28.64
41254;BME280;26987;59.928;30.306;2023-05-25T10:40:02;101082.19;;;25.33;28.73
41254;BME280;26987;59.928;30.306;2023-05-25T10:42:30;101087.81;;;25.42;28.66
41254;BME280;26987;59.928;30.306;2023-05-25T10:44:59;101094.91;;;25.43;28.49
41254;BME280;26987;59.928;30.306;2023-05-25T10:47:27;101090.97;;;25.49;28.85
41254;BME280;26987;59.928;30.306;2023-05-25T10:49:58;101063.00;;;25.14;28.80
41254;BME280;26987;59.928;30.306;2023-05-25T10:52:29;101095.13;;;25.13;28.84
41254;BME280;26987;59.928;30.306;2023-05-25T10:54:58;101085.06;;;24.89;29.26
41254;BME280;26987;59.928;30.306;2023-05-25T10:57:27;101090.56;;;24.65;29.05
41254;BME280;26987;59.928;30.306;2023-05-25T11:00:02;101076.09;;;24.40;29.32
41254;BME280;26987;59.928;30.306;2023-05-25T11:02:49;101086.72;;;24.41;29.42
41254;BME280;26987;59.928;30.306;2023-05-25T11:05:44;101086.63;;;24.27;29.77
41254;BME280;26987;59.928;30.306;2023-05-25T11:08:16;101083.31;;;24.01;29.98
41254;BME280;26987;59.928;30.306;2023-05-25T11:10:51;101065.56;;;23.98;30.24
41254;BME280;26987;59.928;30.306;2023-05-25T11:13:31;101075.59;;;24.33;30.06
41254;BME280;26987;59.928;30.306;2023-05-25T11:16:20;101085.06;;;24.65;29.63
41254;BME280;26987;59.928;30.306;2023-05-25T11:18:51;101087.78;;;24.46;29.51
41254;BME280;26987;59.928;30.306;2023-05-25T11:21:41;101080.63;;;24.69;29.30
41254;BME280;26987;59.928;30.306;2023-05-25T11:24:14;101082.25;;;24.70;29.16
41254;BME280;26987;59.928;30.306;2023-05-25T11:26:53;101079.88;;;24.63;29.52
41254;BME280;26987;59.928;30.306;2023-05-25T11:29:21;101086.69;;;24.66;29.82
41254;BME280;26987;59.928;30.306;2023-05-25T11:31:52;101055.72;;;24.46;29.95
41254;BME280;26987;59.928;30.306;2023-05-25T11:34:21;101074.97;;;24.41;30.07
41254;BME280;26987;59.928;30.306;2023-05-25T11:36:54;101077.25;;;24.34;30.05
41254;BME280;26987;59.928;30.306;2023-05-25T11:39:23;101081.84;;;24.14;30.52
41254;BME280;26987;59.928;30.306;2023-05-25T11:41:53;101073.75;;;23.98;30.58
41254;BME280;26987;59.928;30.306;2023-05-25T11:44:26;101074.22;;;24.05;30.90
41254;BME280;26987;59.928;30.306;2023-05-25T11:47:00;101077.19;;;23.85;31.39
41254;BME280;26987;59.928;30.306;2023-05-25T11:49:28;101069.03;;;23.50;31.96
41254;BME280;26987;59.928;30.306;2023-05-25T11:51:57;101071.38;;;23.27;32.26
41254;BME280;26987;59.928;30.306;2023-05-25T11:54:26;101043.00;;;23.17;32.68
41254;BME280;26987;59.928;30.306;2023-05-25T11:56:55;101059.00;;;23.00;32.60
41254;BME280;26987;59.928;30.306;2023-05-25T11:59:25;101056.66;;;22.77;33.03
41254;BME280;26987;59.928;30.306;2023-05-25T12:01:58;101063.56;;;22.59;32.91
41254;BME280;26987;59.928;30.306;2023-05-25T12:04:26;101039.59;;;22.40;32.49
41254;BME280;26987;59.928;30.306;2023-05-25T12:07:02;101064.13;;;22.56;32.57
41254;BME280;26987;59.928;30.306;2023-05-25T12:09:31;101061.13;;;22.52;32.81
41254;BME280;26987;59.928;30.306;2023-05-25T12:11:59;101049.06;;;22.64;32.44
41254;BME280;26987;59.928;30.306;2023-05-25T12:14:29;101071.41;;;22.82;32.38
41254;BME280;26987;59.928;30.306;2023-05-25T12:16:58;101072.03;;;22.68;32.25
41254;BME280;26987;59.928;30.306;2023-05-25T12:19:26;101072.34;;;22.51;32.43
41254;BME280;26987;59.928;30.306;2023-05-25T12:21:54;101062.03;;;22.32;33.10
41254;BME280;26987;59.928;30.306;2023-05-25T12:24:23;101062.06;;;22.22;33.13
41254;BME280;26987;59.928;30.306;2023-05-25T12:26:52;101072.34;;;22.46;33.10
41254;BME280;26987;59.928;30.306;2023-05-25T12:29:23;101068.75;;;22.66;33.21
41254;BME280;26987;59.928;30.306;2023-05-25T12:31:51;101059.75;;;22.60;33.34
41254;BME280;26987;59.928;30.306;2023-05-25T12:34:19;101040.22;;;22.22;33.78
41254;BME280;26987;59.928;30.306;2023-05-25T12:36:49;101073.25;;;22.30;34.10
41254;BME280;26987;59.928;30.306;2023-05-25T12:39:30;101046.22;;;22.18;34.09
41254;BME280;26987;59.928;30.306;2023-05-25T12:42:01;101080.25;;;22.52;34.36
41254;BME280;26987;59.928;30.306;2023-05-25T12:44:30;101084.09;;;22.51;34.47
41254;BME280;26987;59.928;30.306;2023-05-25T12:47:09;101092.00;;;22.53;34.90
41254;BME280;26987;59.928;30.306;2023-05-25T12:49:39;101082.31;;;22.15;36.01
41254;BME280;26987;59.928;30.306;2023-05-25T12:52:07;101107.44;;;22.12;37.34
41254;BME280;26987;59.928;30.306;2023-05-25T12:54:40;101100.63;;;21.99;37.78